Spicer, Minnesota
Current Conditions -  °F | °C
As of 8:15 AM on Wednesday 26 Nov 2014 (Local Time) from KBDH Reporting Station
Clear Clear  
Wind Chill: 10°   Ceiling: Unl
Heat Index: 23°   Visibility: 7mi
Dew Point: 18°   Wind: 16mph
Humidity: 80%   Direction: 10°N
Pressure: 30.14"   Gusts: NA
Location:  45.23°N, 94.94°W
Report Text: KBDH 261415Z AUTO 01014KT 7SM CLR M05/M08 A3014 RMK AO2
Loading
Personal Weather Stations






























Interactive Weather Map New forecast layout! Learn more

10-Day Weather Forecast

Advertisements
Track Severe Weather on mobile